sensor_id;sensor_type;location;lat;lon;timestamp;P1;durP1;ratioP1;P2;durP2;ratioP2
19651;SDS011;9974;52.146;14.668;2022-08-21T00:02:16;17.35;;;8.65;;
19651;SDS011;9974;52.146;14.668;2022-08-21T00:04:49;17.13;;;9.38;;
19651;SDS011;9974;52.146;14.668;2022-08-21T00:07:15;12.98;;;8.93;;
19651;SDS011;9974;52.146;14.668;2022-08-21T00:09:44;19.52;;;10.75;;
19651;SDS011;9974;52.146;14.668;2022-08-21T00:12:10;15.65;;;9.30;;
19651;SDS011;9974;52.146;14.668;2022-08-21T00:14:36;17.67;;;9.27;;
19651;SDS011;9974;52.146;14.668;2022-08-21T00:17:03;18.10;;;8.93;;
19651;SDS011;9974;52.146;14.668;2022-08-21T00:19:29;16.67;;;8.27;;
19651;SDS011;9974;52.146;14.668;2022-08-21T00:21:56;13.10;;;8.02;;
19651;SDS011;9974;52.146;14.668;2022-08-21T00:24:22;17.00;;;8.77;;
19651;SDS011;9974;52.146;14.668;2022-08-21T00:26:49;13.15;;;8.10;;
19651;SDS011;9974;52.146;14.668;2022-08-21T00:29:16;11.40;;;8.18;;
19651;SDS011;9974;52.146;14.668;2022-08-21T00:31:43;13.35;;;8.85;;
19651;SDS011;9974;52.146;14.668;2022-08-21T00:34:10;12.52;;;8.68;;
19651;SDS011;9974;52.146;14.668;2022-08-21T00:36:36;22.13;;;10.48;;
19651;SDS011;9974;52.146;14.668;2022-08-21T00:39:04;14.73;;;9.02;;
19651;SDS011;9974;52.146;14.668;2022-08-21T00:41:32;14.05;;;9.27;;
19651;SDS011;9974;52.146;14.668;2022-08-21T00:44:00;12.55;;;9.45;;
19651;SDS011;9974;52.146;14.668;2022-08-21T00:46:25;12.73;;;8.95;;
19651;SDS011;9974;52.146;14.668;2022-08-21T00:48:51;18.08;;;10.00;;
19651;SDS011;9974;52.146;14.668;2022-08-21T00:51:19;13.88;;;10.65;;
19651;SDS011;9974;52.146;14.668;2022-08-21T00:53:51;19.52;;;10.93;;
19651;SDS011;9974;52.146;14.668;2022-08-21T00:56:21;17.08;;;9.68;;
19651;SDS011;9974;52.146;14.668;2022-08-21T00:58:49;14.32;;;10.63;;
19651;SDS011;9974;52.146;14.668;2022-08-21T01:01:17;14.18;;;10.80;;
19651;SDS011;9974;52.146;14.668;2022-08-21T01:03:43;15.88;;;11.23;;
19651;SDS011;9974;52.146;14.668;2022-08-21T01:06:09;14.00;;;11.02;;
19651;SDS011;9974;52.146;14.668;2022-08-21T01:08:35;17.55;;;10.90;;
19651;SDS011;9974;52.146;14.668;2022-08-21T01:11:01;16.73;;;12.15;;
19651;SDS011;9974;52.146;14.668;2022-08-21T01:13:29;16.52;;;11.45;;
19651;SDS011;9974;52.146;14.668;2022-08-21T01:15:58;20.67;;;11.60;;
19651;SDS011;9974;52.146;14.668;2022-08-21T01:18:26;17.92;;;12.52;;
19651;SDS011;9974;52.146;14.668;2022-08-21T01:23:35;20.42;;;13.23;;
19651;SDS011;9974;52.146;14.668;2022-08-21T01:26:05;17.42;;;11.60;;
19651;SDS011;9974;52.146;14.668;2022-08-21T01:28:33;21.27;;;13.32;;
19651;SDS011;9974;52.146;14.668;2022-08-21T01:31:05;17.20;;;12.13;;
19651;SDS011;9974;52.146;14.668;2022-08-21T01:33:33;18.88;;;13.57;;
19651;SDS011;9974;52.146;14.668;2022-08-21T01:35:59;19.20;;;13.35;;
19651;SDS011;9974;52.146;14.668;2022-08-21T01:38:25;19.63;;;13.82;;
19651;SDS011;9974;52.146;14.668;2022-08-21T01:40:52;27.02;;;14.52;;
19651;SDS011;9974;52.146;14.668;2022-08-21T01:43:17;19.65;;;13.43;;
19651;SDS011;9974;52.146;14.668;2022-08-21T01:45:43;23.58;;;15.45;;
19651;SDS011;9974;52.146;14.668;2022-08-21T01:48:09;27.00;;;16.48;;
19651;SDS011;9974;52.146;14.668;2022-08-21T01:50:35;23.52;;;17.13;;
19651;SDS011;9974;52.146;14.668;2022-08-21T01:53:01;21.58;;;17.35;;
19651;SDS011;9974;52.146;14.668;2022-08-21T01:55:27;25.77;;;15.40;;
19651;SDS011;9974;52.146;14.668;2022-08-21T01:57:54;23.48;;;16.88;;
19651;SDS011;9974;52.146;14.668;2022-08-21T02:00:21;22.23;;;16.75;;
19651;SDS011;9974;52.146;14.668;2022-08-21T02:02:48;27.98;;;16.88;;
19651;SDS011;9974;52.146;14.668;2022-08-21T02:05:15;23.98;;;16.90;;
19651;SDS011;9974;52.146;14.668;2022-08-21T02:07:42;24.92;;;18.17;;
19651;SDS011;9974;52.146;14.668;2022-08-21T02:10:13;27.00;;;16.55;;
19651;SDS011;9974;52.146;14.668;2022-08-21T02:12:42;21.17;;;17.05;;
19651;SDS011;9974;52.146;14.668;2022-08-21T02:15:08;22.80;;;16.98;;
19651;SDS011;9974;52.146;14.668;2022-08-21T02:17:39;25.73;;;16.60;;
19651;SDS011;9974;52.146;14.668;2022-08-21T02:20:15;21.88;;;16.45;;
19651;SDS011;9974;52.146;14.668;2022-08-21T02:22:48;21.73;;;15.45;;
19651;SDS011;9974;52.146;14.668;2022-08-21T02:25:14;18.98;;;15.30;;
19651;SDS011;9974;52.146;14.668;2022-08-21T02:27:41;16.45;;;13.77;;
19651;SDS011;9974;52.146;14.668;2022-08-21T02:30:11;20.30;;;15.57;;
19651;SDS011;9974;52.146;14.668;2022-08-21T02:32:40;17.10;;;13.90;;
19651;SDS011;9974;52.146;14.668;2022-08-21T02:35:07;21.77;;;14.23;;
19651;SDS011;9974;52.146;14.668;2022-08-21T02:37:42;21.85;;;13.93;;
19651;SDS011;9974;52.146;14.668;2022-08-21T02:40:11;20.17;;;14.75;;
19651;SDS011;9974;52.146;14.668;2022-08-21T02:42:39;20.95;;;13.35;;
19651;SDS011;9974;52.146;14.668;2022-08-21T02:45:05;25.02;;;15.32;;
19651;SDS011;9974;52.146;14.668;2022-08-21T02:47:32;25.20;;;15.63;;
19651;SDS011;9974;52.146;14.668;2022-08-21T02:49:57;27.20;;;15.18;;
19651;SDS011;9974;52.146;14.668;2022-08-21T02:52:23;22.35;;;14.20;;
19651;SDS011;9974;52.146;14.668;2022-08-21T02:54:49;16.55;;;12.18;;
19651;SDS011;9974;52.146;14.668;2022-08-21T02:57:15;25.58;;;11.55;;
19651;SDS011;9974;52.146;14.668;2022-08-21T02:59:41;22.52;;;12.48;;
19651;SDS011;9974;52.146;14.668;2022-08-21T03:02:07;11.88;;;9.32;;
19651;SDS011;9974;52.146;14.668;2022-08-21T03:04:34;11.27;;;8.40;;
19651;SDS011;9974;52.146;14.668;2022-08-21T03:07:00;12.18;;;8.63;;
19651;SDS011;9974;52.146;14.668;2022-08-21T03:09:26;9.25;;;6.97;;
19651;SDS011;9974;52.146;14.668;2022-08-21T03:11:52;12.30;;;6.85;;
19651;SDS011;9974;52.146;14.668;2022-08-21T03:14:18;16.00;;;8.50;;
19651;SDS011;9974;52.146;14.668;2022-08-21T03:16:44;15.43;;;8.60;;
19651;SDS011;9974;52.146;14.668;2022-08-21T03:19:11;11.00;;;7.95;;
19651;SDS011;9974;52.146;14.668;2022-08-21T03:21:37;14.32;;;7.40;;
19651;SDS011;9974;52.146;14.668;2022-08-21T03:24:03;13.02;;;7.63;;
19651;SDS011;9974;52.146;14.668;2022-08-21T03:26:30;12.50;;;7.65;;
19651;SDS011;9974;52.146;14.668;2022-08-21T03:28:56;11.32;;;6.25;;
19651;SDS011;9974;52.146;14.668;2022-08-21T03:31:22;10.68;;;7.15;;
19651;SDS011;9974;52.146;14.668;2022-08-21T03:33:49;12.05;;;6.53;;
19651;SDS011;9974;52.146;14.668;2022-08-21T03:36:15;16.08;;;6.85;;
19651;SDS011;9974;52.146;14.668;2022-08-21T03:38:42;14.55;;;7.13;;
19651;SDS011;9974;52.146;14.668;2022-08-21T03:41:08;10.73;;;6.25;;
19651;SDS011;9974;52.146;14.668;2022-08-21T03:43:34;10.68;;;6.20;;
19651;SDS011;9974;52.146;14.668;2022-08-21T03:46:01;12.50;;;5.88;;
19651;SDS011;9974;52.146;14.668;2022-08-21T03:48:28;8.00;;;5.57;;
19651;SDS011;9974;52.146;14.668;2022-08-21T03:50:54;9.73;;;5.50;;
19651;SDS011;9974;52.146;14.668;2022-08-21T03:53:21;9.02;;;5.60;;
19651;SDS011;9974;52.146;14.668;2022-08-21T03:55:48;11.13;;;7.00;;
19651;SDS011;9974;52.146;14.668;2022-08-21T03:58:17;15.45;;;6.22;;
19651;SDS011;9974;52.146;14.668;2022-08-21T04:00:48;9.25;;;6.22;;
19651;SDS011;9974;52.146;14.668;2022-08-21T04:03:16;11.05;;;6.07;;
19651;SDS011;9974;52.146;14.668;2022-08-21T04:05:43;11.15;;;5.78;;
19651;SDS011;9974;52.146;14.668;2022-08-21T04:08:11;10.38;;;6.50;;
19651;SDS011;9974;52.146;14.668;2022-08-21T04:10:38;13.70;;;5.50;;
19651;SDS011;9974;52.146;14.668;2022-08-21T04:13:05;9.73;;;5.63;;
19651;SDS011;9974;52.146;14.668;2022-08-21T04:15:32;12.35;;;5.30;;
19651;SDS011;9974;52.146;14.668;2022-08-21T04:17:58;6.68;;;4.63;;
19651;SDS011;9974;52.146;14.668;2022-08-21T04:20:24;10.68;;;5.43;;
19651;SDS011;9974;52.146;14.668;2022-08-21T04:22:51;8.32;;;4.97;;
19651;SDS011;9974;52.146;14.668;2022-08-21T04:25:19;13.45;;;5.43;;
19651;SDS011;9974;52.146;14.668;2022-08-21T04:27:47;9.45;;;5.32;;
19651;SDS011;9974;52.146;14.668;2022-08-21T04:30:13;10.07;;;6.00;;
19651;SDS011;9974;52.146;14.668;2022-08-21T04:32:44;9.27;;;5.72;;
19651;SDS011;9974;52.146;14.668;2022-08-21T04:35:13;16.38;;;7.22;;
19651;SDS011;9974;52.146;14.668;2022-08-21T04:37:40;16.35;;;5.35;;
19651;SDS011;9974;52.146;14.668;2022-08-21T04:40:06;11.45;;;5.50;;
19651;SDS011;9974;52.146;14.668;2022-08-21T04:42:40;9.80;;;5.18;;
19651;SDS011;9974;52.146;14.668;2022-08-21T04:45:09;9.77;;;5.80;;
19651;SDS011;9974;52.146;14.668;2022-08-21T04:47:48;10.15;;;5.78;;
19651;SDS011;9974;52.146;14.668;2022-08-21T04:50:15;21.08;;;5.65;;
19651;SDS011;9974;52.146;14.668;2022-08-21T04:52:42;13.63;;;5.85;;
19651;SDS011;9974;52.146;14.668;2022-08-21T04:55:08;16.35;;;6.32;;
19651;SDS011;9974;52.146;14.668;2022-08-21T04:57:34;11.68;;;5.78;;
19651;SDS011;9974;52.146;14.668;2022-08-21T05:00:02;16.67;;;5.50;;
19651;SDS011;9974;52.146;14.668;2022-08-21T05:02:30;17.95;;;5.15;;
19651;SDS011;9974;52.146;14.668;2022-08-21T05:04:57;16.10;;;6.45;;
19651;SDS011;9974;52.146;14.668;2022-08-21T05:07:25;14.30;;;7.65;;
19651;SDS011;9974;52.146;14.668;2022-08-21T05:09:54;15.10;;;6.45;;
19651;SDS011;9974;52.146;14.668;2022-08-21T05:12:20;10.10;;;5.85;;
19651;SDS011;9974;52.146;14.668;2022-08-21T05:14:47;11.27;;;6.00;;
19651;SDS011;9974;52.146;14.668;2022-08-21T05:17:13;15.45;;;5.85;;
19651;SDS011;9974;52.146;14.668;2022-08-21T05:19:39;10.88;;;5.25;;
19651;SDS011;9974;52.146;14.668;2022-08-21T05:22:05;10.98;;;5.57;;
19651;SDS011;9974;52.146;14.668;2022-08-21T05:24:31;7.60;;;5.75;;
19651;SDS011;9974;52.146;14.668;2022-08-21T05:26:57;10.88;;;5.35;;
19651;SDS011;9974;52.146;14.668;2022-08-21T05:29:24;8.05;;;5.28;;
19651;SDS011;9974;52.146;14.668;2022-08-21T05:31:50;10.45;;;5.28;;
19651;SDS011;9974;52.146;14.668;2022-08-21T05:34:20;10.07;;;5.93;;
19651;SDS011;9974;52.146;14.668;2022-08-21T05:36:48;12.20;;;5.50;;
19651;SDS011;9974;52.146;14.668;2022-08-21T05:39:14;10.63;;;6.10;;
19651;SDS011;9974;52.146;14.668;2022-08-21T05:41:40;9.07;;;6.13;;
19651;SDS011;9974;52.146;14.668;2022-08-21T05:44:05;14.68;;;7.28;;
19651;SDS011;9974;52.146;14.668;2022-08-21T05:46:31;13.40;;;7.00;;
19651;SDS011;9974;52.146;14.668;2022-08-21T05:48:57;15.15;;;7.22;;
19651;SDS011;9974;52.146;14.668;2022-08-21T05:51:24;12.77;;;6.00;;
19651;SDS011;9974;52.146;14.668;2022-08-21T05:53:49;11.30;;;5.55;;
19651;SDS011;9974;52.146;14.668;2022-08-21T05:56:15;10.57;;;6.03;;
19651;SDS011;9974;52.146;14.668;2022-08-21T05:58:41;13.13;;;5.78;;
19651;SDS011;9974;52.146;14.668;2022-08-21T06:01:07;8.35;;;5.68;;
19651;SDS011;9974;52.146;14.668;2022-08-21T06:03:35;10.88;;;5.65;;
19651;SDS011;9974;52.146;14.668;2022-08-21T06:06:03;8.57;;;5.50;;
19651;SDS011;9974;52.146;14.668;2022-08-21T06:08:29;9.68;;;5.57;;
19651;SDS011;9974;52.146;14.668;2022-08-21T06:10:56;10.13;;;5.38;;
19651;SDS011;9974;52.146;14.668;2022-08-21T06:13:24;9.50;;;5.68;;
19651;SDS011;9974;52.146;14.668;2022-08-21T06:16:00;9.50;;;5.15;;
19651;SDS011;9974;52.146;14.668;2022-08-21T06:18:27;10.43;;;5.07;;
19651;SDS011;9974;52.146;14.668;2022-08-21T06:20:53;9.82;;;5.20;;
19651;SDS011;9974;52.146;14.668;2022-08-21T06:23:18;12.15;;;6.00;;
19651;SDS011;9974;52.146;14.668;2022-08-21T06:25:44;8.05;;;5.18;;
19651;SDS011;9974;52.146;14.668;2022-08-21T06:28:11;12.38;;;5.43;;
19651;SDS011;9974;52.146;14.668;2022-08-21T06:30:38;10.60;;;5.13;;
19651;SDS011;9974;52.146;14.668;2022-08-21T06:33:04;10.52;;;5.47;;
19651;SDS011;9974;52.146;14.668;2022-08-21T06:35:31;7.20;;;4.80;;
19651;SDS011;9974;52.146;14.668;2022-08-21T06:37:57;8.52;;;4.97;;
19651;SDS011;9974;52.146;14.668;2022-08-21T06:40:23;13.65;;;6.07;;
19651;SDS011;9974;52.146;14.668;2022-08-21T06:42:51;11.55;;;5.70;;
19651;SDS011;9974;52.146;14.668;2022-08-21T06:45:17;15.13;;;5.13;;
19651;SDS011;9974;52.146;14.668;2022-08-21T06:47:43;11.00;;;5.03;;
19651;SDS011;9974;52.146;14.668;2022-08-21T06:50:09;8.73;;;4.55;;
19651;SDS011;9974;52.146;14.668;2022-08-21T06:52:36;8.23;;;4.40;;
19651;SDS011;9974;52.146;14.668;2022-08-21T06:55:02;6.65;;;4.43;;
19651;SDS011;9974;52.146;14.668;2022-08-21T06:57:33;8.52;;;3.80;;
19651;SDS011;9974;52.146;14.668;2022-08-21T06:59:59;6.47;;;3.78;;
19651;SDS011;9974;52.146;14.668;2022-08-21T07:02:25;13.40;;;4.75;;
19651;SDS011;9974;52.146;14.668;2022-08-21T07:04:51;7.97;;;3.92;;
19651;SDS011;9974;52.146;14.668;2022-08-21T07:07:17;7.03;;;3.92;;
19651;SDS011;9974;52.146;14.668;2022-08-21T07:09:43;8.95;;;4.05;;
19651;SDS011;9974;52.146;14.668;2022-08-21T07:12:08;9.52;;;4.22;;
19651;SDS011;9974;52.146;14.668;2022-08-21T07:14:35;8.80;;;3.78;;
19651;SDS011;9974;52.146;14.668;2022-08-21T07:17:01;7.90;;;3.70;;
19651;SDS011;9974;52.146;14.668;2022-08-21T07:19:27;7.75;;;3.72;;
19651;SDS011;9974;52.146;14.668;2022-08-21T07:21:57;8.50;;;3.85;;
19651;SDS011;9974;52.146;14.668;2022-08-21T07:24:26;10.15;;;3.58;;
19651;SDS011;9974;52.146;14.668;2022-08-21T07:26:52;13.35;;;4.05;;
19651;SDS011;9974;52.146;14.668;2022-08-21T07:29:18;14.35;;;4.05;;
19651;SDS011;9974;52.146;14.668;2022-08-21T07:31:44;7.30;;;3.55;;
19651;SDS011;9974;52.146;14.668;2022-08-21T07:34:10;12.98;;;3.90;;
19651;SDS011;9974;52.146;14.668;2022-08-21T07:36:37;11.13;;;4.10;;
19651;SDS011;9974;52.146;14.668;2022-08-21T07:39:02;4.65;;;2.50;;
19651;SDS011;9974;52.146;14.668;2022-08-21T07:41:29;7.82;;;2.97;;
19651;SDS011;9974;52.146;14.668;2022-08-21T07:43:58;8.98;;;3.30;;
19651;SDS011;9974;52.146;14.668;2022-08-21T07:46:24;10.77;;;2.92;;
19651;SDS011;9974;52.146;14.668;2022-08-21T07:48:51;9.60;;;3.30;;
19651;SDS011;9974;52.146;14.668;2022-08-21T07:51:17;8.43;;;2.78;;
19651;SDS011;9974;52.146;14.668;2022-08-21T07:53:48;6.85;;;2.90;;
19651;SDS011;9974;52.146;14.668;2022-08-21T07:56:16;6.55;;;2.60;;
19651;SDS011;9974;52.146;14.668;2022-08-21T07:58:43;8.20;;;3.13;;
19651;SDS011;9974;52.146;14.668;2022-08-21T08:01:09;8.43;;;3.20;;
19651;SDS011;9974;52.146;14.668;2022-08-21T08:03:34;6.40;;;2.72;;
19651;SDS011;9974;52.146;14.668;2022-08-21T08:06:01;9.32;;;4.07;;
19651;SDS011;9974;52.146;14.668;2022-08-21T08:08:29;6.90;;;3.03;;
19651;SDS011;9974;52.146;14.668;2022-08-21T08:10:55;10.40;;;3.28;;
19651;SDS011;9974;52.146;14.668;2022-08-21T08:13:22;10.95;;;3.60;;
19651;SDS011;9974;52.146;14.668;2022-08-21T08:15:48;9.73;;;3.50;;
19651;SDS011;9974;52.146;14.668;2022-08-21T08:18:15;9.05;;;3.65;;
19651;SDS011;9974;52.146;14.668;2022-08-21T08:20:41;8.52;;;3.28;;
19651;SDS011;9974;52.146;14.668;2022-08-21T08:23:11;9.10;;;3.10;;
19651;SDS011;9974;52.146;14.668;2022-08-21T08:25:40;8.30;;;3.22;;
19651;SDS011;9974;52.146;14.668;2022-08-21T08:28:06;10.95;;;3.75;;
19651;SDS011;9974;52.146;14.668;2022-08-21T08:30:32;13.57;;;3.20;;
19651;SDS011;9974;52.146;14.668;2022-08-21T08:32:58;8.38;;;2.90;;
19651;SDS011;9974;52.146;14.668;2022-08-21T08:35:25;8.15;;;3.53;;
19651;SDS011;9974;52.146;14.668;2022-08-21T08:37:51;10.57;;;3.35;;
19651;SDS011;9974;52.146;14.668;2022-08-21T08:40:19;8.82;;;3.80;;
19651;SDS011;9974;52.146;14.668;2022-08-21T08:42:54;14.85;;;3.97;;
19651;SDS011;9974;52.146;14.668;2022-08-21T08:45:20;8.10;;;2.67;;
19651;SDS011;9974;52.146;14.668;2022-08-21T08:47:55;7.03;;;2.92;;
19651;SDS011;9974;52.146;14.668;2022-08-21T08:53:32;8.55;;;2.85;;
19651;SDS011;9974;52.146;14.668;2022-08-21T08:56:12;12.65;;;3.38;;
19651;SDS011;9974;52.146;14.668;2022-08-21T08:58:39;8.90;;;2.80;;
19651;SDS011;9974;52.146;14.668;2022-08-21T09:01:12;12.63;;;3.10;;
19651;SDS011;9974;52.146;14.668;2022-08-21T09:03:44;7.55;;;2.63;;
19651;SDS011;9974;52.146;14.668;2022-08-21T09:06:21;8.02;;;3.25;;
19651;SDS011;9974;52.146;14.668;2022-08-21T09:09:21;4.88;;;2.65;;
19651;SDS011;9974;52.146;14.668;2022-08-21T09:18:02;10.48;;;3.00;;
19651;SDS011;9974;52.146;14.668;2022-08-21T09:21:05;9.63;;;3.33;;
19651;SDS011;9974;52.146;14.668;2022-08-21T09:24:01;7.15;;;2.70;;
19651;SDS011;9974;52.146;14.668;2022-08-21T09:26:57;10.18;;;2.90;;
19651;SDS011;9974;52.146;14.668;2022-08-21T09:29:43;9.98;;;2.47;;
19651;SDS011;9974;52.146;14.668;2022-08-21T09:32:17;10.85;;;3.33;;
19651;SDS011;9974;52.146;14.668;2022-08-21T09:35:09;8.88;;;3.00;;
19651;SDS011;9974;52.146;14.668;2022-08-21T09:40:38;6.18;;;2.95;;
19651;SDS011;9974;52.146;14.668;2022-08-21T09:43:17;5.95;;;2.65;;
19651;SDS011;9974;52.146;14.668;2022-08-21T09:45:46;9.43;;;2.85;;
19651;SDS011;9974;52.146;14.668;2022-08-21T09:48:21;10.15;;;2.33;;
19651;SDS011;9974;52.146;14.668;2022-08-21T09:50:49;7.72;;;3.17;;
19651;SDS011;9974;52.146;14.668;2022-08-21T09:53:26;9.85;;;5.18;;
19651;SDS011;9974;52.146;14.668;2022-08-21T09:55:59;11.55;;;4.68;;
19651;SDS011;9974;52.146;14.668;2022-08-21T09:58:58;11.52;;;3.50;;
19651;SDS011;9974;52.146;14.668;2022-08-21T10:01:25;10.35;;;4.70;;
19651;SDS011;9974;52.146;14.668;2022-08-21T10:04:04;15.43;;;4.00;;
19651;SDS011;9974;52.146;14.668;2022-08-21T10:06:33;7.57;;;3.60;;
19651;SDS011;9974;52.146;14.668;2022-08-21T10:09:07;11.90;;;4.38;;
19651;SDS011;9974;52.146;14.668;2022-08-21T10:11:39;10.52;;;3.97;;
19651;SDS011;9974;52.146;14.668;2022-08-21T10:20:11;23.27;;;8.57;;
19651;SDS011;9974;52.146;14.668;2022-08-21T10:23:01;22.38;;;8.10;;
19651;SDS011;9974;52.146;14.668;2022-08-21T10:26:02;19.05;;;6.63;;
19651;SDS011;9974;52.146;14.668;2022-08-21T10:37:38;10.13;;;3.83;;
19651;SDS011;9974;52.146;14.668;2022-08-21T10:44:26;16.55;;;6.75;;
19651;SDS011;9974;52.146;14.668;2022-08-21T10:47:00;21.75;;;10.60;;
19651;SDS011;9974;52.146;14.668;2022-08-21T10:49:38;8.35;;;4.43;;
19651;SDS011;9974;52.146;14.668;2022-08-21T10:55:21;8.82;;;2.25;;
19651;SDS011;9974;52.146;14.668;2022-08-21T11:00:23;6.60;;;2.60;;
19651;SDS011;9974;52.146;14.668;2022-08-21T11:03:03;8.02;;;2.85;;
19651;SDS011;9974;52.146;14.668;2022-08-21T11:08:12;6.78;;;2.20;;
19651;SDS011;9974;52.146;14.668;2022-08-21T11:10:47;10.30;;;2.42;;
19651;SDS011;9974;52.146;14.668;2022-08-21T11:13:55;9.70;;;2.45;;
19651;SDS011;9974;52.146;14.668;2022-08-21T11:16:33;7.35;;;2.03;;
19651;SDS011;9974;52.146;14.668;2022-08-21T11:25:22;5.97;;;2.40;;
19651;SDS011;9974;52.146;14.668;2022-08-21T11:30:50;13.27;;;2.83;;
19651;SDS011;9974;52.146;14.668;2022-08-21T11:36:38;7.45;;;2.60;;
19651;SDS011;9974;52.146;14.668;2022-08-21T11:39:41;9.90;;;3.13;;
19651;SDS011;9974;52.146;14.668;2022-08-21T11:45:26;7.55;;;1.80;;
19651;SDS011;9974;52.146;14.668;2022-08-21T11:51:15;6.97;;;1.90;;
19651;SDS011;9974;52.146;14.668;2022-08-21T11:53:49;2.80;;;1.42;;
19651;SDS011;9974;52.146;14.668;2022-08-21T11:56:47;6.90;;;3.13;;
19651;SDS011;9974;52.146;14.668;2022-08-21T12:00:05;3.58;;;1.40;;
19651;SDS011;9974;52.146;14.668;2022-08-21T12:02:34;7.20;;;1.63;;
19651;SDS011;9974;52.146;14.668;2022-08-21T12:05:04;3.75;;;1.50;;
19651;SDS011;9974;52.146;14.668;2022-08-21T12:10:14;6.05;;;1.88;;
19651;SDS011;9974;52.146;14.668;2022-08-21T12:12:46;3.78;;;1.40;;
19651;SDS011;9974;52.146;14.668;2022-08-21T12:18:02;6.95;;;1.42;;
19651;SDS011;9974;52.146;14.668;2022-08-21T12:25:37;4.78;;;1.45;;
19651;SDS011;9974;52.146;14.668;2022-08-21T12:28:27;5.88;;;1.52;;
19651;SDS011;9974;52.146;14.668;2022-08-21T12:30:55;6.70;;;1.50;;
19651;SDS011;9974;52.146;14.668;2022-08-21T12:33:26;3.92;;;1.65;;
19651;SDS011;9974;52.146;14.668;2022-08-21T12:36:14;5.22;;;1.30;;
19651;SDS011;9974;52.146;14.668;2022-08-21T12:38:50;5.22;;;1.58;;
19651;SDS011;9974;52.146;14.668;2022-08-21T12:41:28;18.30;;;1.77;;
19651;SDS011;9974;52.146;14.668;2022-08-21T12:44:12;5.53;;;1.70;;
19651;SDS011;9974;52.146;14.668;2022-08-21T12:46:56;5.32;;;1.65;;
19651;SDS011;9974;52.146;14.668;2022-08-21T12:49:32;6.15;;;1.55;;
19651;SDS011;9974;52.146;14.668;2022-08-21T12:54:29;3.72;;;1.42;;
19651;SDS011;9974;52.146;14.668;2022-08-21T12:57:02;3.88;;;1.52;;
19651;SDS011;9974;52.146;14.668;2022-08-21T12:59:31;3.35;;;0.93;;
19651;SDS011;9974;52.146;14.668;2022-08-21T13:02:03;3.22;;;1.30;;
19651;SDS011;9974;52.146;14.668;2022-08-21T13:04:41;3.38;;;1.50;;
19651;SDS011;9974;52.146;14.668;2022-08-21T13:07:08;3.28;;;1.42;;
19651;SDS011;9974;52.146;14.668;2022-08-21T13:09:47;8.45;;;2.03;;
19651;SDS011;9974;52.146;14.668;2022-08-21T13:12:20;3.50;;;1.20;;
19651;SDS011;9974;52.146;14.668;2022-08-21T13:14:48;6.85;;;1.40;;
19651;SDS011;9974;52.146;14.668;2022-08-21T13:17:19;2.70;;;1.38;;
19651;SDS011;9974;52.146;14.668;2022-08-21T13:19:53;3.65;;;1.10;;
19651;SDS011;9974;52.146;14.668;2022-08-21T13:22:25;3.95;;;1.42;;
19651;SDS011;9974;52.146;14.668;2022-08-21T13:24:53;7.78;;;1.60;;
19651;SDS011;9974;52.146;14.668;2022-08-21T13:27:21;4.53;;;1.75;;
19651;SDS011;9974;52.146;14.668;2022-08-21T13:32:57;2.13;;;0.93;;
19651;SDS011;9974;52.146;14.668;2022-08-21T13:35:26;3.17;;;1.13;;
19651;SDS011;9974;52.146;14.668;2022-08-21T13:38:09;5.20;;;1.63;;
19651;SDS011;9974;52.146;14.668;2022-08-21T13:43:13;4.45;;;1.42;;
19651;SDS011;9974;52.146;14.668;2022-08-21T13:45:43;4.10;;;1.48;;
19651;SDS011;9974;52.146;14.668;2022-08-21T13:48:15;5.30;;;1.55;;
19651;SDS011;9974;52.146;14.668;2022-08-21T13:50:41;5.10;;;2.05;;
19651;SDS011;9974;52.146;14.668;2022-08-21T13:53:23;5.80;;;1.17;;
19651;SDS011;9974;52.146;14.668;2022-08-21T13:55:58;6.15;;;1.30;;
19651;SDS011;9974;52.146;14.668;2022-08-21T13:58:30;2.80;;;1.00;;
19651;SDS011;9974;52.146;14.668;2022-08-21T14:01:50;3.63;;;1.30;;
19651;SDS011;9974;52.146;14.668;2022-08-21T14:04:22;5.25;;;1.23;;
19651;SDS011;9974;52.146;14.668;2022-08-21T14:06:58;4.35;;;1.15;;
19651;SDS011;9974;52.146;14.668;2022-08-21T14:12:11;4.47;;;1.00;;
19651;SDS011;9974;52.146;14.668;2022-08-21T14:14:51;4.05;;;1.10;;
19651;SDS011;9974;52.146;14.668;2022-08-21T14:17:31;8.77;;;1.45;;
19651;SDS011;9974;52.146;14.668;2022-08-21T14:20:05;3.08;;;1.15;;
19651;SDS011;9974;52.146;14.668;2022-08-21T14:25:47;3.25;;;1.30;;
19651;SDS011;9974;52.146;14.668;2022-08-21T14:27:53;3.15;;;1.27;;
19651;SDS011;9974;52.146;14.668;2022-08-21T14:30:47;3.60;;;1.30;;
19651;SDS011;9974;52.146;14.668;2022-08-21T14:33:15;5.70;;;1.20;;
19651;SDS011;9974;52.146;14.668;2022-08-21T14:35:50;7.00;;;1.58;;
19651;SDS011;9974;52.146;14.668;2022-08-21T14:38:18;7.97;;;1.25;;
19651;SDS011;9974;52.146;14.668;2022-08-21T14:40:47;8.20;;;1.85;;
19651;SDS011;9974;52.146;14.668;2022-08-21T14:43:17;4.50;;;1.35;;
19651;SDS011;9974;52.146;14.668;2022-08-21T14:45:44;3.75;;;1.50;;
19651;SDS011;9974;52.146;14.668;2022-08-21T14:48:10;4.65;;;1.88;;
19651;SDS011;9974;52.146;14.668;2022-08-21T14:50:36;5.50;;;1.80;;
19651;SDS011;9974;52.146;14.668;2022-08-21T14:53:02;2.90;;;1.30;;
19651;SDS011;9974;52.146;14.668;2022-08-21T14:55:29;6.07;;;1.63;;
19651;SDS011;9974;52.146;14.668;2022-08-21T14:58:16;2.63;;;0.98;;
19651;SDS011;9974;52.146;14.668;2022-08-21T15:00:42;5.30;;;1.75;;
19651;SDS011;9974;52.146;14.668;2022-08-21T15:03:07;7.97;;;2.40;;
19651;SDS011;9974;52.146;14.668;2022-08-21T15:05:34;5.35;;;1.35;;
19651;SDS011;9974;52.146;14.668;2022-08-21T15:08:00;3.80;;;1.40;;
19651;SDS011;9974;52.146;14.668;2022-08-21T15:10:26;3.40;;;1.17;;
19651;SDS011;9974;52.146;14.668;2022-08-21T15:12:53;3.35;;;1.35;;
19651;SDS011;9974;52.146;14.668;2022-08-21T15:15:18;4.47;;;1.20;;
19651;SDS011;9974;52.146;14.668;2022-08-21T15:17:44;4.15;;;1.02;;
19651;SDS011;9974;52.146;14.668;2022-08-21T15:20:10;2.15;;;1.25;;
19651;SDS011;9974;52.146;14.668;2022-08-21T15:22:37;1.50;;;0.77;;
19651;SDS011;9974;52.146;14.668;2022-08-21T15:25:02;4.18;;;1.15;;
19651;SDS011;9974;52.146;14.668;2022-08-21T15:27:28;4.10;;;1.67;;
19651;SDS011;9974;52.146;14.668;2022-08-21T15:29:54;4.88;;;1.38;;
19651;SDS011;9974;52.146;14.668;2022-08-21T15:32:22;1.92;;;1.27;;
19651;SDS011;9974;52.146;14.668;2022-08-21T15:34:52;2.33;;;1.35;;
19651;SDS011;9974;52.146;14.668;2022-08-21T15:37:19;3.58;;;1.08;;
19651;SDS011;9974;52.146;14.668;2022-08-21T15:39:46;7.53;;;1.40;;
19651;SDS011;9974;52.146;14.668;2022-08-21T15:42:13;5.30;;;1.20;;
19651;SDS011;9974;52.146;14.668;2022-08-21T15:44:39;4.65;;;1.33;;
19651;SDS011;9974;52.146;14.668;2022-08-21T15:47:09;4.78;;;1.27;;
19651;SDS011;9974;52.146;14.668;2022-08-21T15:49:42;4.60;;;1.48;;
19651;SDS011;9974;52.146;14.668;2022-08-21T15:52:10;5.03;;;1.08;;
19651;SDS011;9974;52.146;14.668;2022-08-21T15:54:42;3.47;;;1.20;;
19651;SDS011;9974;52.146;14.668;2022-08-21T15:57:15;4.38;;;1.33;;
19651;SDS011;9974;52.146;14.668;2022-08-21T15:59:45;4.30;;;1.33;;
19651;SDS011;9974;52.146;14.668;2022-08-21T16:02:21;3.72;;;1.63;;
19651;SDS011;9974;52.146;14.668;2022-08-21T16:04:55;3.63;;;1.30;;
19651;SDS011;9974;52.146;14.668;2022-08-21T16:07:21;4.47;;;1.30;;
19651;SDS011;9974;52.146;14.668;2022-08-21T16:09:47;5.30;;;1.20;;
19651;SDS011;9974;52.146;14.668;2022-08-21T16:12:25;4.18;;;1.33;;
19651;SDS011;9974;52.146;14.668;2022-08-21T16:14:56;4.05;;;1.15;;
19651;SDS011;9974;52.146;14.668;2022-08-21T16:17:25;5.40;;;1.45;;
19651;SDS011;9974;52.146;14.668;2022-08-21T16:19:56;2.83;;;0.93;;
19651;SDS011;9974;52.146;14.668;2022-08-21T16:22:23;2.72;;;0.98;;